Portada
METAR-TAF:

METAR-TAF

Aeropuertos :

Aeropuerto de Växjö-Småland

Växjö, Suecia

latitud: 56-51N, longitud: 014-50E, altitud: 199 m

Observación

El informe se hizo hace 30 minutos, a las 00:20 UTC
Viento 12 kt del sur-suroeste
Temperatura 3°C
Humedad 100%
Presión 1003 hPa
Visibilidad 10 km o más

METAR: ESMX 190020Z AUTO 21012KT 9999 BKN008/// OVC011/// 03/03 Q1003 REDZ

Hora: 01:50 (00:50 UTC)

Pronóstico

El informe se hizo hace 7 horas y 20 minutos, a las 17:30 UTC
Pronóstico válido del 18 a las 18 UTC al 18 a las 21 UTC
Viento 14 kt del suroeste con ráfagas de 24 kt
Visibilidad 10 km o más
Nubes dispersas a una altura de 1000 ft
Cielo nuboso a una altura de 2000 ft
Temporalmente
del 18 a las 18 UTC al 18 a las 21 UTC
Visibilidad: 4000 m
Cielo nuboso a una altura de 800 ft
Cielo nuboso a una altura de 2000 ft, Cumulonimbus.
chaparrones de lluvia

TAF: ESMX 181730Z 1818/1821 23014G24KT 9999 SCT010 BKN020 TEMPO 1818/1821 4000 SHRA BKN008 BKN020CB

Observaciones y pronósticos meteorológicos de más de 4000 aeropuertos (mensajes METAR y TAF).

Los puntos amarillos y rojos representan las estaciones disponibles.

Ponga el ratón en el punto deseado para ver el nombre de la estación.

Haga clic para ver las observaciones y los pronósticos meteorológicos.

Para cambiar el mapa : haga clic en los botones verdes con una cruz de color negro para hacer un zoom, en el botón verde con un guión para alejar o en las flechas verdes para mapas adyacentes.


METAR-TAF: